Time;durP1;ratioP1;P1;durP2;ratioP2;P2;SDS_P1;SDS_P2;PMS_P1;PMS_P2;Temp;Humidity;BMP_temperature;BMP_pressure;BME280_temperature;BME280_humidity;BME280_pressure;Samples;Min_cycle;Max_cycle;Signal;HPM_P1;HPM_P2
2022/04/03 00:01:44;;;;;;;;;;;;;;;11.80;35.94;100763.22;4942331;28;97915;-62
2022/04/03 00:04:10;;;;;;;;;;;;;;;11.79;35.48;100767.00;4940267;28;98392;-63
2022/04/03 00:06:35;;;;;;;;;;;;;;;11.79;35.58;100760.81;4941862;28;127351;-62
2022/04/03 00:09:02;;;;;;;;;;;;;;;11.78;35.88;100769.97;4942182;28;127261;-62
2022/04/03 00:11:28;;;;;;;;;;;;;;;11.78;35.68;100772.66;4907532;28;98505;-62
2022/04/03 00:13:55;;;;;;;;;;;;;;;11.77;35.49;100763.75;4922151;28;98697;-62
2022/04/03 00:16:21;;;;;;;;;;;;;;;11.75;35.78;100763.22;4941462;28;98101;-62
2022/04/03 00:18:48;;;;;;;;;;;;;;;11.74;35.77;100772.38;4956920;28;98299;-63
2022/04/03 00:21:15;;;;;;;;;;;;;;;11.74;35.94;100771.56;4942870;28;97981;-62
2022/04/03 00:23:41;;;;;;;;;;;;;;;11.72;35.66;100774.56;4943067;28;98988;-62
2022/04/03 00:26:06;;;;;;;;;;;;;;;11.71;35.67;100774.81;4940663;28;128148;-62
2022/04/03 00:28:32;;;;;;;;;;;;;;;11.69;35.43;100782.38;4942618;28;119433;-62
2022/04/03 00:30:58;;;;;;;;;;;;;;;11.66;35.73;100775.59;4942475;28;106276;-62
2022/04/03 00:33:24;;;;;;;;;;;;;;;11.64;35.82;100780.47;4957397;28;99412;-62
2022/04/03 00:35:50;;;;;;;;;;;;;;;11.64;35.76;100785.06;4941444;28;98924;-62
2022/04/03 00:38:17;;;;;;;;;;;;;;;11.62;36.01;100784.50;4955262;28;118051;-62
2022/04/03 00:40:45;;;;;;;;;;;;;;;11.59;35.74;100783.16;4943005;28;109223;-62
2022/04/03 00:43:11;;;;;;;;;;;;;;;11.58;36.14;100781.53;4942933;28;98854;-62
2022/04/03 00:45:38;;;;;;;;;;;;;;;11.57;36.21;100784.50;4942376;28;99097;-63
2022/04/03 00:48:04;;;;;;;;;;;;;;;11.54;36.00;100789.34;4956632;28;118815;-62
2022/04/03 00:50:30;;;;;;;;;;;;;;;11.53;36.01;100789.63;4941134;28;98001;-63
2022/04/03 00:52:56;;;;;;;;;;;;;;;11.51;35.97;100791.75;4941550;28;125930;-63
2022/04/03 00:55:22;;;;;;;;;;;;;;;11.49;36.31;100797.44;4940878;28;128435;-63
2022/04/03 00:57:47;;;;;;;;;;;;;;;11.47;36.31;100798.78;4941145;28;125480;-62
2022/04/03 01:00:13;;;;;;;;;;;;;;;11.45;36.02;100803.63;4941712;28;111858;-63
2022/04/03 01:02:40;;;;;;;;;;;;;;;11.43;35.96;100797.69;4957343;28;99013;-62
2022/04/03 01:05:07;;;;;;;;;;;;;;;11.42;35.60;100799.56;4942453;28;98714;-62
2022/04/03 01:07:33;;;;;;;;;;;;;;;11.41;36.06;100797.16;4942128;28;98034;-62
2022/04/03 01:09:59;;;;;;;;;;;;;;;11.38;36.34;100795.78;4944113;28;105669;-62
2022/04/03 01:12:25;;;;;;;;;;;;;;;11.38;36.06;100798.47;4942437;28;98587;-62
2022/04/03 01:14:51;;;;;;;;;;;;;;;11.37;35.90;100799.56;4941065;28;127921;-63
2022/04/03 01:17:17;;;;;;;;;;;;;;;11.34;36.23;100793.88;4941556;28;127922;-62
2022/04/03 01:19:43;;;;;;;;;;;;;;;11.32;36.32;100799.56;4941191;28;110451;-63
2022/04/03 01:22:09;;;;;;;;;;;;;;;11.32;36.13;100802.25;4941166;28;128319;-62
2022/04/03 01:24:35;;;;;;;;;;;;;;;11.30;36.44;100805.19;4940876;28;127227;-63
2022/04/03 01:27:01;;;;;;;;;;;;;;;11.29;35.98;100800.88;4941668;28;126626;-62
2022/04/03 01:29:27;;;;;;;;;;;;;;;11.28;36.44;100811.94;4941149;28;110597;-62
2022/04/03 01:31:53;;;;;;;;;;;;;;;11.26;36.30;100804.09;4941507;28;98538;-62
2022/04/03 01:34:19;;;;;;;;;;;;;;;11.24;36.50;100800.88;4939751;28;98340;-62
2022/04/03 01:36:46;;;;;;;;;;;;;;;11.22;36.53;100807.59;4940465;28;98551;-62
2022/04/03 01:39:14;;;;;;;;;;;;;;;11.21;36.08;100800.59;4941622;28;97882;-62
2022/04/03 01:41:40;;;;;;;;;;;;;;;11.20;36.02;100807.03;4939181;28;99241;-62
2022/04/03 01:44:07;;;;;;;;;;;;;;;11.18;36.33;100804.59;4941432;28;121570;-63
2022/04/03 01:46:33;;;;;;;;;;;;;;;11.18;36.33;100809.19;4941225;28;98026;-62
2022/04/03 01:48:59;;;;;;;;;;;;;;;11.17;36.57;100805.69;4941054;28;112354;-62
2022/04/03 01:51:25;;;;;;;;;;;;;;;11.16;36.21;100803.22;4940536;28;107335;-62
2022/04/03 01:53:51;;;;;;;;;;;;;;;11.15;36.09;100801.63;4942744;28;98347;-63
2022/04/03 01:56:17;;;;;;;;;;;;;;;11.12;36.52;100800.28;4940312;28;127372;-63
2022/04/03 01:58:43;;;;;;;;;;;;;;;11.11;35.91;100803.22;4956836;28;97781;-63
2022/04/03 02:01:09;;;;;;;;;;;;;;;11.07;36.45;100806.44;4938962;28;98555;-62
2022/04/03 02:03:35;;;;;;;;;;;;;;;11.06;36.56;100814.81;4940734;28;125870;-62
2022/04/03 02:06:01;;;;;;;;;;;;;;;11.04;36.37;100812.38;4924563;28;98520;-62
2022/04/03 02:08:27;;;;;;;;;;;;;;;11.01;36.83;100812.91;4938200;28;98010;-62
2022/04/03 02:10:53;;;;;;;;;;;;;;;10.99;36.71;100809.63;4939363;28;98615;-62
2022/04/03 02:13:19;;;;;;;;;;;;;;;10.98;36.90;100804.50;4955645;28;121919;-62
2022/04/03 02:15:45;;;;;;;;;;;;;;;10.97;36.52;100817.19;4940477;28;126999;-62
2022/04/03 02:18:12;;;;;;;;;;;;;;;10.96;36.55;100820.94;4941622;28;110052;-63
2022/04/03 02:20:38;;;;;;;;;;;;;;;10.95;36.94;100818.50;4941474;28;98260;-62
2022/04/03 02:23:05;;;;;;;;;;;;;;;10.92;36.84;100822.53;4939980;28;128345;-63
2022/04/03 02:25:31;;;;;;;;;;;;;;;10.91;36.88;100823.63;4941333;28;98985;-62
2022/04/03 02:27:58;;;;;;;;;;;;;;;10.90;36.57;100826.59;4938507;28;111135;-63
2022/04/03 02:30:24;;;;;;;;;;;;;;;10.88;36.84;100826.03;4939009;28;99113;-63
2022/04/03 02:32:50;;;;;;;;;;;;;;;10.87;36.73;100829.78;4939738;28;126959;-64
2022/04/03 02:35:16;;;;;;;;;;;;;;;10.84;36.63;100831.13;4940800;28;99387;-63
2022/04/03 02:37:42;;;;;;;;;;;;;;;10.83;36.96;100834.88;4941514;28;98185;-62
2022/04/03 02:40:10;;;;;;;;;;;;;;;10.82;36.39;100835.97;4941441;28;98462;-63
2022/04/03 02:42:36;;;;;;;;;;;;;;;10.80;37.08;100832.72;4944397;28;98262;-63
2022/04/03 02:45:03;;;;;;;;;;;;;;;10.79;36.78;100831.09;4943457;28;98579;-63
2022/04/03 02:47:29;;;;;;;;;;;;;;;10.78;36.87;100832.97;4944328;28;98247;-64
2022/04/03 02:49:55;;;;;;;;;;;;;;;10.76;37.10;100824.31;4943390;28;128809;-63
2022/04/03 02:52:21;;;;;;;;;;;;;;;10.76;36.85;100832.41;4943467;28;128125;-63
2022/04/03 02:54:47;;;;;;;;;;;;;;;10.74;36.89;100833.75;4943388;28;116730;-63
2022/04/03 02:57:17;;;;;;;;;;;;;;;10.73;36.98;100840.22;4943995;28;97741;-63
2022/04/03 02:59:43;;;;;;;;;;;;;;;10.71;36.74;100839.66;4944086;28;98562;-64
2022/04/03 03:02:10;;;;;;;;;;;;;;;10.69;36.98;100847.19;4944723;28;98743;-62
2022/04/03 03:04:36;;;;;;;;;;;;;;;10.68;36.75;100842.88;4943648;28;98230;-62
2022/04/03 03:07:05;;;;;;;;;;;;;;;10.66;37.26;100845.84;4944860;28;97910;-62
2022/04/03 03:09:32;;;;;;;;;;;;;;;10.64;36.96;100845.28;4943776;28;112095;-64
2022/04/03 03:12:00;;;;;;;;;;;;;;;10.63;37.47;100837.44;4943787;28;126375;-62
2022/04/03 03:14:27;;;;;;;;;;;;;;;10.62;37.34;100838.53;4944148;28;98021;-62
2022/04/03 03:16:53;;;;;;;;;;;;;;;10.60;36.95;100841.47;4941522;28;97744;-63
2022/04/03 03:19:19;;;;;;;;;;;;;;;10.59;36.83;100836.34;4944292;28;100869;-62
2022/04/03 03:21:45;;;;;;;;;;;;;;;10.57;37.32;100840.13;4942822;28;126600;-62
2022/04/03 03:24:11;;;;;;;;;;;;;;;10.56;37.17;100840.34;4945023;28;101684;-63
2022/04/03 03:26:37;;;;;;;;;;;;;;;10.54;37.16;100845.22;4944539;28;98056;-62
2022/04/03 03:29:03;;;;;;;;;;;;;;;10.52;37.16;100848.16;4944397;28;98568;-62
2022/04/03 03:31:29;;;;;;;;;;;;;;;10.53;37.09;100848.94;4943835;28;121738;-62
2022/04/03 03:33:55;;;;;;;;;;;;;;;10.51;37.61;100849.22;4942544;28;126915;-62
2022/04/03 03:36:21;;;;;;;;;;;;;;;10.50;37.64;100846.78;4957255;28;98581;-62
2022/04/03 03:38:47;;;;;;;;;;;;;;;10.48;37.62;100844.34;4942259;28;127986;-62
2022/04/03 03:41:14;;;;;;;;;;;;;;;10.48;37.75;100843.53;4940898;28;127473;-63
2022/04/03 03:43:40;;;;;;;;;;;;;;;10.47;37.63;100836.53;4944452;28;97856;-62
2022/04/03 03:46:08;;;;;;;;;;;;;;;10.45;37.30;100844.03;4942567;28;105531;-62
2022/04/03 03:48:34;;;;;;;;;;;;;;;10.43;37.86;100849.69;4943351;28;98230;-62
2022/04/03 03:51:00;;;;;;;;;;;;;;;10.42;37.68;100845.38;4941805;28;125654;-62
2022/04/03 03:53:26;;;;;;;;;;;;;;;10.41;38.00;100845.63;4958299;28;103393;-62
2022/04/03 03:55:52;;;;;;;;;;;;;;;10.40;37.58;100839.44;4942780;28;112503;-63
2022/04/03 03:58:18;;;;;;;;;;;;;;;10.38;37.77;100849.66;4941689;28;127947;-63
2022/04/03 04:00:44;;;;;;;;;;;;;;;10.37;37.54;100853.41;4942918;28;128798;-62
2022/04/03 04:03:10;;;;;;;;;;;;;;;10.36;37.70;100853.69;4942777;28;98442;-63
2022/04/03 04:05:36;;;;;;;;;;;;;;;10.33;37.82;100857.69;4938023;28;109129;-63
2022/04/03 04:08:02;;;;;;;;;;;;;;;10.31;37.14;100868.72;4922706;28;117624;-62
2022/04/03 04:10:28;;;;;;;;;;;;;;;10.31;37.59;100862.53;4934268;28;119517;-63
2022/04/03 04:12:54;;;;;;;;;;;;;;;10.29;37.70;100867.34;4942571;28;127561;-63
2022/04/03 04:15:20;;;;;;;;;;;;;;;10.28;37.40;100871.13;4944223;28;97724;-62
2022/04/03 04:17:47;;;;;;;;;;;;;;;10.26;37.70;100868.69;4956651;28;98253;-63
2022/04/03 04:20:15;;;;;;;;;;;;;;;10.25;38.01;100875.13;4941978;28;125461;-62
2022/04/03 04:22:41;;;;;;;;;;;;;;;10.23;37.88;100879.94;4942509;28;97803;-63
2022/04/03 04:25:08;;;;;;;;;;;;;;;10.22;37.81;100881.00;4943899;28;97821;-61
2022/04/03 04:27:34;;;;;;;;;;;;;;;10.22;38.05;100886.41;4941888;28;98918;-61
2022/04/03 04:30:00;;;;;;;;;;;;;;;10.20;37.92;100885.81;4942178;28;109230;-63
2022/04/03 04:32:26;;;;;;;;;;;;;;;10.19;38.06;100886.91;4941703;28;115488;-62
2022/04/03 04:34:52;;;;;;;;;;;;;;;10.18;37.61;100895.22;4944055;28;97785;-61
2022/04/03 04:37:18;;;;;;;;;;;;;;;10.17;38.22;100901.69;4941340;28;114118;-62
2022/04/03 04:39:45;;;;;;;;;;;;;;;10.17;37.88;100902.50;4956155;28;112364;-63
2022/04/03 04:42:11;;;;;;;;;;;;;;;10.17;38.24;100905.19;4942823;28;98054;-63
2022/04/03 04:44:37;;;;;;;;;;;;;;;10.17;38.14;100907.88;4942540;28;100602;-62
2022/04/03 04:47:03;;;;;;;;;;;;;;;10.17;37.84;100915.97;4940609;28;98849;-62
2022/04/03 04:49:29;;;;;;;;;;;;;;;10.16;38.05;100911.66;4943976;28;101468;-62
2022/04/03 04:51:55;;;;;;;;;;;;;;;10.16;38.10;100908.97;4941610;28;127540;-62
2022/04/03 04:54:21;;;;;;;;;;;;;;;10.17;37.55;100907.06;4943186;28;113401;-61
2022/04/03 04:56:47;;;;;;;;;;;;;;;10.17;37.70;100918.66;4941174;28;121590;-61
2022/04/03 04:59:13;;;;;;;;;;;;;;;10.19;37.50;100913.03;4941495;28;126960;-61
2022/04/03 05:01:39;;;;;;;;;;;;;;;10.20;37.30;100914.66;4956798;28;98022;-63
2022/04/03 05:04:06;;;;;;;;;;;;;;;10.20;37.65;100918.16;4941611;28;97822;-62
2022/04/03 05:06:32;;;;;;;;;;;;;;;10.22;37.55;100921.44;4930453;28;99029;-62
2022/04/03 05:08:58;;;;;;;;;;;;;;;10.23;38.00;100924.94;4941162;28;98248;-62
2022/04/03 05:11:24;;;;;;;;;;;;;;;10.25;37.86;100920.13;4941075;28;127345;-63
2022/04/03 05:13:50;;;;;;;;;;;;;;;10.27;37.87;100931.47;4957003;28;103214;-61
2022/04/03 05:16:16;;;;;;;;;;;;;;;10.29;37.21;100930.13;4939673;28;99315;-62
2022/04/03 05:18:42;;;;;;;;;;;;;;;10.32;37.53;100939.59;4943379;28;99157;-62
2022/04/03 05:21:10;;;;;;;;;;;;;;;10.34;38.16;100937.47;4940657;28;127706;-62
2022/04/03 05:23:37;;;;;;;;;;;;;;;10.37;37.89;100936.94;4943055;28;98209;-61
2022/04/03 05:26:03;;;;;;;;;;;;;;;10.39;37.97;100937.53;4941286;28;99357;-62
2022/04/03 05:28:29;;;;;;;;;;;;;;;10.43;37.63;100932.44;4941075;28;99039;-61
2022/04/03 05:30:55;;;;;;;;;;;;;;;10.47;37.27;100936.25;4940688;28;127579;-63
2022/04/03 05:33:21;;;;;;;;;;;;;;;10.51;37.73;100942.75;4942623;28;97999;-63
2022/04/03 05:35:47;;;;;;;;;;;;;;;10.54;37.53;100942.25;4941301;28;116157;-63
2022/04/03 05:38:13;;;;;;;;;;;;;;;10.57;38.12;100939.03;4940649;28;129190;-62
2022/04/03 05:40:39;;;;;;;;;;;;;;;10.63;37.89;100939.91;4941617;28;98385;-62
2022/04/03 05:43:05;;;;;;;;;;;;;;;10.70;37.85;100944.00;4947193;28;97900;-62
2022/04/03 05:45:31;;;;;;;;;;;;;;;10.77;37.35;100939.22;4958805;28;126290;-62
2022/04/03 05:47:57;;;;;;;;;;;;;;;10.85;37.13;100943.34;4939166;28;101416;-61
2022/04/03 05:50:23;;;;;;;;;;;;;;;10.93;37.14;100950.13;4947069;28;97929;-62
2022/04/03 05:52:50;;;;;;;;;;;;;;;10.99;38.09;100943.69;4945707;28;97925;-61
2022/04/03 05:55:17;;;;;;;;;;;;;;;11.06;37.96;100945.09;4935690;28;98571;-63
2022/04/03 05:57:43;;;;;;;;;;;;;;;11.15;37.71;100948.13;4921018;28;98850;-63
2022/04/03 06:00:13;;;;;;;;;;;;;;;11.22;37.56;100948.72;4951777;28;123564;-62
2022/04/03 06:02:55;;;;;;;;;;;;;;;11.31;37.92;100957.13;4941886;28;98171;-63
2022/04/03 06:05:22;;;;;;;;;;;;;;;11.43;37.75;100952.34;4938177;28;99500;-63
2022/04/03 06:07:48;;;;;;;;;;;;;;;11.54;37.57;100951.34;4935807;28;98183;-63
2022/04/03 06:10:14;;;;;;;;;;;;;;;11.68;37.06;100953.59;4938313;28;98340;-62
2022/04/03 06:12:56;;;;;;;;;;;;;;;11.81;37.15;100947.69;4938181;28;98374;-63
2022/04/03 06:15:24;;;;;;;;;;;;;;;11.95;37.24;100953.47;4940246;28;114912;-62
2022/04/03 06:17:50;;;;;;;;;;;;;;;12.09;36.89;100942.97;4942700;28;98707;-62
2022/04/03 06:20:17;;;;;;;;;;;;;;;12.22;37.27;100951.41;4941735;28;97927;-63
2022/04/03 06:22:44;;;;;;;;;;;;;;;12.36;36.89;100951.69;4940597;28;110315;-62
2022/04/03 06:25:09;;;;;;;;;;;;;;;12.50;37.09;100957.41;4940976;28;99366;-63
2022/04/03 06:27:35;;;;;;;;;;;;;;;12.62;37.03;100952.53;4934397;28;99077;-63
2022/04/03 06:30:01;;;;;;;;;;;;;;;12.73;36.79;100958.75;4938376;28;125410;-62
2022/04/03 06:32:29;;;;;;;;;;;;;;;12.84;36.84;100952.28;4939228;28;114095;-63
2022/04/03 06:34:55;;;;;;;;;;;;;;;13.02;36.62;100951.72;4916476;28;98819;-62
2022/04/03 06:37:21;;;;;;;;;;;;;;;13.25;36.55;100957.69;4933912;28;123838;-63
2022/04/03 06:39:47;;;;;;;;;;;;;;;13.49;36.73;100956.03;4939611;28;126389;-63
2022/04/03 06:42:13;;;;;;;;;;;;;;;13.80;36.33;100950.50;4938552;28;112059;-62
2022/04/03 06:44:39;;;;;;;;;;;;;;;14.24;36.02;100955.19;4954872;28;128255;-62
2022/04/03 06:47:05;;;;;;;;;;;;;;;14.75;35.62;100962.22;4940036;28;98956;-62
2022/04/03 06:49:31;;;;;;;;;;;;;;;15.18;35.26;100941.47;4940091;28;125642;-63
2022/04/03 06:51:57;;;;;;;;;;;;;;;15.60;35.36;100946.19;4903150;28;98228;-62
2022/04/03 06:54:23;;;;;;;;;;;;;;;15.86;34.98;100946.72;4938396;28;99112;-63
2022/04/03 06:56:49;;;;;;;;;;;;;;;16.19;34.99;100947.66;4939691;28;128444;-63
2022/04/03 06:59:15;;;;;;;;;;;;;;;16.50;35.03;100949.91;4939312;28;127622;-63
2022/04/03 07:01:41;;;;;;;;;;;;;;;16.84;34.65;100948.88;4938616;28;111096;-62
2022/04/03 07:04:06;;;;;;;;;;;;;;;17.13;34.66;100954.94;4940087;28;127604;-63
2022/04/03 07:06:32;;;;;;;;;;;;;;;17.26;34.68;100957.97;4939354;28;127965;-63
2022/04/03 07:08:58;;;;;;;;;;;;;;;17.27;34.89;100948.69;4937676;28;126392;-63
2022/04/03 07:11:24;;;;;;;;;;;;;;;17.23;35.11;100955.84;4940510;28;112260;-63
2022/04/03 07:13:50;;;;;;;;;;;;;;;17.15;35.19;100954.63;4938374;28;127423;-63
2022/04/03 07:16:16;;;;;;;;;;;;;;;16.94;35.66;100956.91;4938780;28;126514;-63
2022/04/03 07:18:42;;;;;;;;;;;;;;;16.68;35.61;100959.97;4940232;28;98104;-63
2022/04/03 07:21:08;;;;;;;;;;;;;;;16.44;36.28;100956.56;4938379;28;97964;-63
2022/04/03 07:23:34;;;;;;;;;;;;;;;16.22;36.05;100954.41;4937451;28;127337;-63
2022/04/03 07:26:00;;;;;;;;;;;;;;;16.05;36.47;100960.34;4937715;28;98615;-63
2022/04/03 07:28:26;;;;;;;;;;;;;;;15.99;36.49;100963.41;4939919;28;97837;-62
2022/04/03 07:30:52;;;;;;;;;;;;;;;15.97;36.13;100961.00;4939177;28;112661;-63
2022/04/03 07:33:21;;;;;;;;;;;;;;;16.09;36.11;100963.28;4939476;28;130192;-62
2022/04/03 07:35:51;;;;;;;;;;;;;;;16.30;35.79;100963.81;4940606;28;98784;-62
2022/04/03 07:38:18;;;;;;;;;;;;;;;16.77;35.66;100964.78;4938649;28;119969;-63
2022/04/03 07:40:45;;;;;;;;;;;;;;;17.04;35.33;100964.88;4940467;28;98859;-62
2022/04/03 07:43:12;;;;;;;;;;;;;;;17.29;35.06;100977.25;4939565;28;100039;-63
2022/04/03 07:45:38;;;;;;;;;;;;;;;17.51;35.02;100979.28;4936927;28;122475;-62
2022/04/03 07:48:04;;;;;;;;;;;;;;;17.71;34.82;100971.84;4936425;28;128117;-63
2022/04/03 07:50:30;;;;;;;;;;;;;;;17.85;34.81;100980.84;4945743;28;104313;-63
2022/04/03 07:52:56;;;;;;;;;;;;;;;17.97;34.76;100977.63;4938407;28;122219;-63
2022/04/03 07:55:22;;;;;;;;;;;;;;;18.07;34.81;100986.38;4939564;28;98675;-63
2022/04/03 07:57:48;;;;;;;;;;;;;;;18.14;34.75;100978.59;4938276;28;127187;-63
2022/04/03 08:00:14;;;;;;;;;;;;;;;18.27;34.76;100981.59;4939132;28;111715;-63
2022/04/03 08:02:40;;;;;;;;;;;;;;;18.46;34.61;100989.66;4937927;28;100170;-63
2022/04/03 08:05:07;;;;;;;;;;;;;;;18.67;34.41;100984.50;4939348;28;99781;-63
2022/04/03 08:07:36;;;;;;;;;;;;;;;18.91;34.29;100984.28;4938633;28;116476;-63
2022/04/03 08:10:08;;;;;;;;;;;;;;;19.16;34.42;100985.53;4933138;28;97997;-63
2022/04/03 08:12:34;;;;;;;;;;;;;;;19.42;34.12;100988.44;4940093;28;98536;-63
2022/04/03 08:15:00;;;;;;;;;;;;;;;19.61;34.04;100986.28;4938855;28;116162;-63
2022/04/03 08:17:26;;;;;;;;;;;;;;;19.82;34.08;100981.06;4938709;28;98455;-63
2022/04/03 08:19:52;;;;;;;;;;;;;;;20.07;34.13;100979.50;4938309;28;97786;-64
2022/04/03 08:22:18;;;;;;;;;;;;;;;20.41;33.75;100980.69;4939060;28;101791;-63
2022/04/03 08:24:44;;;;;;;;;;;;;;;20.79;33.41;100978.94;4938697;28;128139;-62
2022/04/03 08:27:12;;;;;;;;;;;;;;;21.18;33.41;100984.50;4935049;28;127700;-62
2022/04/03 08:29:38;;;;;;;;;;;;;;;21.50;33.17;100980.44;4939301;28;98043;-62
2022/04/03 08:32:04;;;;;;;;;;;;;;;21.96;32.93;100978.75;4937972;28;127660;-62
2022/04/03 08:34:30;;;;;;;;;;;;;;;22.61;32.62;100993.03;4935483;28;128876;-62
2022/04/03 08:36:56;;;;;;;;;;;;;;;23.40;32.11;100986.44;4915605;28;127643;-62
2022/04/03 08:39:22;;;;;;;;;;;;;;;23.66;32.24;100986.16;4938543;28;98043;-62
2022/04/03 08:41:48;;;;;;;;;;;;;;;24.19;31.82;100994.50;4937115;28;123986;-63
2022/04/03 08:44:14;;;;;;;;;;;;;;;24.48;31.76;100985.97;4938224;28;127963;-63
2022/04/03 08:46:41;;;;;;;;;;;;;;;24.64;31.98;100986.03;4935606;28;127656;-63
2022/04/03 08:49:07;;;;;;;;;;;;;;;24.84;31.95;100984.25;4919747;28;113310;-66
2022/04/03 08:51:34;;;;;;;;;;;;;;;25.20;31.99;100988.78;4919325;28;125179;-63
2022/04/03 08:54:00;;;;;;;;;;;;;;;25.74;31.28;100975.50;4937720;28;126890;-63
2022/04/03 08:56:25;;;;;;;;;;;;;;;26.02;31.19;100987.28;4935158;28;127804;-63
2022/04/03 08:58:51;;;;;;;;;;;;;;;26.31;31.27;100987.91;4938181;28;113624;-63
2022/04/03 09:01:18;;;;;;;;;;;;;;;26.53;31.01;100978.16;4937622;28;107733;-63
2022/04/03 09:03:44;;;;;;;;;;;;;;;27.02;30.70;100983.03;4938791;28;99312;-63
2022/04/03 09:06:11;;;;;;;;;;;;;;;27.50;30.43;100981.53;4937635;28;101222;-64
2022/04/03 09:08:37;;;;;;;;;;;;;;;28.91;29.43;100977.59;4939350;28;98415;-63
2022/04/03 09:11:05;;;;;;;;;;;;;;;30.05;28.71;100980.56;4938381;28;98480;-63
2022/04/03 09:13:31;;;;;;;;;;;;;;;31.61;27.78;100981.47;4938888;28;98039;-63
2022/04/03 09:15:57;;;;;;;;;;;;;;;32.78;27.15;100993.50;4935409;28;114522;-63
2022/04/03 09:18:23;;;;;;;;;;;;;;;33.90;26.54;100984.72;4939652;28;98342;-63
2022/04/03 09:20:49;;;;;;;;;;;;;;;34.90;26.21;100989.16;4937350;28;98088;-63
2022/04/03 09:23:17;;;;;;;;;;;;;;;34.63;26.20;100989.13;4952892;28;99083;-63
2022/04/03 09:25:44;;;;;;;;;;;;;;;33.56;27.21;100973.47;4936589;28;98475;-63
2022/04/03 09:28:16;;;;;;;;;;;;;;;32.50;28.38;100970.97;4924108;28;98189;-63
2022/04/03 09:30:44;;;;;;;;;;;;;;;31.21;29.07;100961.97;4068312;28;10000694;-63
2022/04/03 09:33:11;;;;;;;;;;;;;;;30.14;29.59;100963.53;4936266;28;97986;-63
2022/04/03 09:36:01;;;;;;;;;;;;;;;29.19;29.26;100967.97;4937980;28;98756;-63
2022/04/03 09:38:28;;;;;;;;;;;;;;;28.30;29.53;100964.97;4937750;28;99069;-63
2022/04/03 09:40:55;;;;;;;;;;;;;;;27.77;29.51;100959.47;4937464;28;98308;-63
2022/04/03 09:43:38;;;;;;;;;;;;;;;27.44;29.38;100954.56;4951966;28;98088;-63
2022/04/03 09:46:05;;;;;;;;;;;;;;;27.22;29.28;100962.50;4932109;28;99367;-62
2022/04/03 09:48:41;;;;;;;;;;;;;;;29.38;27.12;100951.09;4937804;28;99609;-63
2022/04/03 09:51:07;;;;;;;;;;;;;;;30.49;26.15;100952.63;4931873;28;99031;-62
2022/04/03 09:53:49;;;;;;;;;;;;;;;31.39;25.26;100959.19;4938483;28;98193;-63
2022/04/03 09:56:28;;;;;;;;;;;;;;;30.52;26.19;100968.53;4936026;28;98391;-62
2022/04/03 09:58:58;;;;;;;;;;;;;;;28.92;27.47;100961.75;4934390;28;99526;-63
2022/04/03 10:01:34;;;;;;;;;;;;;;;28.10;28.00;100970.66;4937104;28;98524;-63
2022/04/03 10:04:03;;;;;;;;;;;;;;;29.48;26.70;100955.16;4938617;28;98013;-62
2022/04/03 10:06:30;;;;;;;;;;;;;;;31.16;25.05;100953.97;4936419;28;113328;-63
2022/04/03 10:08:56;;;;;;;;;;;;;;;29.88;26.00;100956.28;4936457;28;111528;-62
2022/04/03 10:11:22;;;;;;;;;;;;;;;29.83;26.16;100969.34;4938202;28;98979;-63
2022/04/03 10:13:48;;;;;;;;;;;;;;;29.66;26.27;100967.22;4951857;28;98397;-62
2022/04/03 10:16:16;;;;;;;;;;;;;;;29.72;26.08;100951.81;4937399;28;98851;-63
2022/04/03 10:18:43;;;;;;;;;;;;;;;28.73;26.91;100959.94;4937369;28;98503;-62
2022/04/03 10:21:30;;;;;;;;;;;;;;;28.07;27.54;100957.53;4936777;28;98423;-62
2022/04/03 10:24:05;;;;;;;;;;;;;;;27.34;27.82;100955.97;4935914;28;97847;-63
2022/04/03 10:26:34;;;;;;;;;;;;;;;26.99;27.88;100943.09;4935740;28;98699;-62
2022/04/03 10:29:00;;;;;;;;;;;;;;;26.85;27.65;100948.38;4935016;28;98943;-63
2022/04/03 10:31:26;;;;;;;;;;;;;;;26.71;27.80;100939.78;4936307;28;127191;-63
2022/04/03 10:33:52;;;;;;;;;;;;;;;26.36;27.89;100940.63;4937911;28;97993;-63
2022/04/03 10:36:26;;;;;;;;;;;;;;;25.94;28.19;100944.88;4935945;28;107050;-63
2022/04/03 10:39:06;;;;;;;;;;;;;;;25.62;28.65;100935.84;4937010;28;98675;-63
2022/04/03 10:41:36;;;;;;;;;;;;;;;25.46;28.66;100938.59;4929982;28;98375;-63
2022/04/03 10:44:19;;;;;;;;;;;;;;;25.82;28.27;100938.66;4937760;28;98166;-63
2022/04/03 10:47:04;;;;;;;;;;;;;;;27.59;26.59;100942.56;4936602;28;98384;-63
2022/04/03 10:50:00;;;;;;;;;;;;;;;29.57;25.01;100936.22;4935201;28;98193;-63
2022/04/03 10:52:38;;;;;;;;;;;;;;;31.19;24.21;100936.50;4935810;28;128444;-63
2022/04/03 10:55:21;;;;;;;;;;;;;;;30.70;25.01;100940.00;4936809;28;97837;-63
2022/04/03 10:58:02;;;;;;;;;;;;;;;32.48;24.13;100934.31;4936436;28;98264;-62
2022/04/03 11:00:28;;;;;;;;;;;;;;;33.13;23.74;100936.69;4938178;28;98363;-63
2022/04/03 11:03:00;;;;;;;;;;;;;;;33.31;24.10;100931.78;4941575;28;102223;-62
2022/04/03 11:05:26;;;;;;;;;;;;;;;34.33;23.72;100919.94;4070013;28;10000352;-63
2022/04/03 11:07:52;;;;;;;;;;;;;;;33.21;24.59;100918.72;4941249;28;97973;-63
2022/04/03 11:10:53;;;;;;;;;;;;;;;32.22;25.59;100918.06;4939417;28;98148;-63
2022/04/03 11:13:31;;;;;;;;;;;;;;;30.90;26.21;100909.84;4936295;28;98707;-63
2022/04/03 11:16:01;;;;;;;;;;;;;;;29.89;26.46;100905.88;4937827;28;98946;-63
2022/04/03 11:18:44;;;;;;;;;;;;;;;29.09;27.21;100903.69;4936554;28;128129;-62
2022/04/03 11:21:25;;;;;;;;;;;;;;;28.44;26.76;100909.72;4936427;28;98350;-62
2022/04/03 11:24:10;;;;;;;;;;;;;;;29.20;26.06;100891.88;4932107;28;128644;-63
2022/04/03 11:26:37;;;;;;;;;;;;;;;29.93;25.44;100892.78;4935006;28;128661;-63
2022/04/03 11:29:04;;;;;;;;;;;;;;;29.78;25.36;100886.34;4937055;28;119280;-62
2022/04/03 11:31:30;;;;;;;;;;;;;;;28.93;25.95;100877.38;4938115;28;97943;-63
2022/04/03 11:33:57;;;;;;;;;;;;;;;28.36;26.18;100877.53;4938266;28;128287;-62
2022/04/03 11:36:27;;;;;;;;;;;;;;;28.20;26.66;100879.72;4950241;28;119681;-62
2022/04/03 11:38:53;;;;;;;;;;;;;;;27.79;26.57;100877.63;4933169;28;110075;-63
2022/04/03 11:41:35;;;;;;;;;;;;;;;27.25;26.87;100876.00;4937819;28;114340;-63
2022/04/03 11:44:03;;;;;;;;;;;;;;;26.68;26.87;100878.56;4931703;28;98069;-63
2022/04/03 11:46:30;;;;;;;;;;;;;;;26.33;27.09;100877.81;4934397;28;99069;-62
2022/04/03 11:48:56;;;;;;;;;;;;;;;25.90;27.44;100869.47;4950409;28;98448;-63
2022/04/03 11:51:22;;;;;;;;;;;;;;;25.60;27.29;100871.13;4935359;28;113381;-63
2022/04/03 11:53:59;;;;;;;;;;;;;;;26.85;26.32;100860.69;4938965;28;100047;-63
2022/04/03 11:56:25;;;;;;;;;;;;;;;27.42;25.88;100866.38;4936176;28;98259;-63
2022/04/03 11:58:55;;;;;;;;;;;;;;;26.96;26.45;100869.16;4951200;28;126694;-63
2022/04/03 12:01:33;;;;;;;;;;;;;;;26.63;27.01;100862.25;4935630;28;110778;-63
2022/04/03 12:04:10;;;;;;;;;;;;;;;26.45;27.04;100858.38;4938088;28;100086;-63
2022/04/03 12:06:37;;;;;;;;;;;;;;;26.20;27.25;100855.88;4937239;28;98636;-63
2022/04/03 12:09:10;;;;;;;;;;;;;;;25.90;27.38;100855.66;4940299;28;107222;-63
2022/04/03 12:11:37;;;;;;;;;;;;;;;25.63;27.56;100851.09;4939872;28;97860;-63
2022/04/03 12:14:03;;;;;;;;;;;;;;;25.35;27.93;100849.28;4938440;28;119340;-63
2022/04/03 12:16:40;;;;;;;;;;;;;;;25.06;27.88;100849.69;4937864;28;125339;-62
2022/04/03 12:19:08;;;;;;;;;;;;;;;24.74;28.05;100841.41;4937881;28;108508;-63
2022/04/03 12:21:36;;;;;;;;;;;;;;;24.48;28.22;100855.66;4939479;28;97813;-63
2022/04/03 12:24:07;;;;;;;;;;;;;;;24.25;28.15;100850.72;4939352;28;98956;-64
2022/04/03 12:26:33;;;;;;;;;;;;;;;24.68;28.07;100851.91;4938473;28;98248;-63
2022/04/03 12:29:00;;;;;;;;;;;;;;;25.80;26.94;100845.19;4950928;28;116536;-63
2022/04/03 12:31:30;;;;;;;;;;;;;;;26.42;26.67;100837.75;4939091;28;98167;-63
2022/04/03 12:34:13;;;;;;;;;;;;;;;26.99;26.52;100837.19;4936086;28;107359;-63